Time;durP1;ratioP1;P1;durP2;ratioP2;P2;SDS_P1;SDS_P2;PMS_P1;PMS_P2;Temp;Humidity;BMP_temperature;BMP_pressure;BME280_temperature;BME280_humidity;BME280_pressure;Samples;Min_cycle;Max_cycle;Signal;HPM_P1;HPM_P2
2022/03/29 00:00:00;;;;;;;;;;;21.00;27.30;;;;;;5146549;27;20275;-60
2022/03/29 00:02:26;;;;;;;;;;;21.30;27.00;;;;;;5146323;27;19927;-51
2022/03/29 00:04:52;;;;;;;;;;;21.00;27.30;;;;;;5151518;27;19972;-60
2022/03/29 00:07:17;;;;;;;;;;;21.30;27.10;;;;;;5143941;27;20366;-55
2022/03/29 00:09:43;;;;;;;;;;;21.00;27.40;;;;;;5149140;27;20271;-61
2022/03/29 00:12:09;;;;;;;;;;;21.30;27.00;;;;;;5146259;27;19926;-52
2022/03/29 00:14:35;;;;;;;;;;;21.10;27.40;;;;;;5146351;27;20543;-58
2022/03/29 00:17:00;;;;;;;;;;;21.20;27.20;;;;;;5133235;27;19923;-57
2022/03/29 00:19:26;;;;;;;;;;;21.00;27.50;;;;;;5146409;27;20297;-60
2022/03/29 00:21:52;;;;;;;;;;;21.10;27.40;;;;;;5146158;27;19923;-49
2022/03/29 00:24:18;;;;;;;;;;;20.90;27.60;;;;;;5150753;27;19923;-56
2022/03/29 00:26:44;;;;;;;;;;;21.20;27.40;;;;;;5142037;27;19946;-57
2022/03/29 00:29:09;;;;;;;;;;;21.00;27.50;;;;;;5150477;27;19935;-60
2022/03/29 00:31:35;;;;;;;;;;;21.20;27.30;;;;;;5145978;27;19930;-48
2022/03/29 00:34:01;;;;;;;;;;;21.00;27.30;;;;;;5145895;27;19923;-58
2022/03/29 00:36:28;;;;;;;;;;;21.20;27.00;;;;;;5151488;27;19938;-56
2022/03/29 00:38:54;;;;;;;;;;;20.90;27.20;;;;;;5145698;27;19929;-59
2022/03/29 00:41:20;;;;;;;;;;;21.20;26.90;;;;;;5145849;27;20378;-57
2022/03/29 00:43:46;;;;;;;;;;;20.90;27.30;;;;;;5149347;27;19930;-59
2022/03/29 00:46:11;;;;;;;;;;;21.30;26.90;;;;;;5142302;27;19923;-59
2022/03/29 00:48:38;;;;;;;;;;;21.00;27.00;;;;;;5150105;27;19923;-55
2022/03/29 00:51:04;;;;;;;;;;;21.30;26.70;;;;;;5147380;27;19933;-56
2022/03/29 00:53:30;;;;;;;;;;;21.00;26.90;;;;;;5145801;27;20390;-60
2022/03/29 00:55:59;;;;;;;;;;;21.30;26.60;;;;;;5150907;27;20021;-58
2022/03/29 00:58:25;;;;;;;;;;;21.00;27.00;;;;;;5145199;27;19927;-60
2022/03/29 01:00:52;;;;;;;;;;;21.30;26.60;;;;;;5144984;27;20271;-49
2022/03/29 01:03:18;;;;;;;;;;;21.00;27.10;;;;;;5111445;27;19973;-58
2022/03/29 01:05:44;;;;;;;;;;;21.20;26.90;;;;;;5143952;27;19923;-57
2022/03/29 01:08:10;;;;;;;;;;;21.00;27.20;;;;;;5143803;27;19942;-58
2022/03/29 01:10:36;;;;;;;;;;;21.30;26.80;;;;;;5150598;27;19923;-54
2022/03/29 01:13:02;;;;;;;;;;;21.00;27.10;;;;;;5145240;27;20375;-59
2022/03/29 01:15:28;;;;;;;;;;;21.20;26.90;;;;;;5150527;27;19934;-56
2022/03/29 01:17:54;;;;;;;;;;;20.90;27.20;;;;;;5126580;27;19923;-55
2022/03/29 01:20:21;;;;;;;;;;;21.20;26.90;;;;;;5143911;27;19972;-57
2022/03/29 01:22:47;;;;;;;;;;;21.00;27.00;;;;;;5146203;27;19932;-57
2022/03/29 01:25:14;;;;;;;;;;;21.20;27.10;;;;;;5144379;27;20367;-54
2022/03/29 01:27:40;;;;;;;;;;;20.80;27.50;;;;;;5145099;27;20329;-60
2022/03/29 01:30:06;;;;;;;;;;;21.30;27.00;;;;;;5150397;27;20005;-56
2022/03/29 01:32:32;;;;;;;;;;;21.00;27.40;;;;;;5144821;27;20425;-54
2022/03/29 01:34:57;;;;;;;;;;;21.30;27.00;;;;;;5149984;27;19934;-57
2022/03/29 01:37:23;;;;;;;;;;;21.00;27.50;;;;;;5144435;27;19968;-58
2022/03/29 01:39:49;;;;;;;;;;;21.20;27.30;;;;;;5141763;27;20058;-53
2022/03/29 01:42:15;;;;;;;;;;;20.90;27.50;;;;;;5147720;27;19924;-58
2022/03/29 01:44:41;;;;;;;;;;;21.20;27.20;;;;;;5108950;27;19967;-58
2022/03/29 01:47:07;;;;;;;;;;;21.00;27.50;;;;;;5144529;27;20538;-58
2022/03/29 01:49:33;;;;;;;;;;;21.20;27.30;;;;;;5149810;27;19923;-54
2022/03/29 01:51:59;;;;;;;;;;;20.90;27.70;;;;;;5125835;27;19933;-59
2022/03/29 01:54:24;;;;;;;;;;;21.20;27.30;;;;;;5149449;27;20009;-56
2022/03/29 01:56:50;;;;;;;;;;;21.10;27.40;;;;;;5144105;27;19973;-59
2022/03/29 01:59:16;;;;;;;;;;;21.30;27.20;;;;;;5140347;27;19934;-57
2022/03/29 02:01:42;;;;;;;;;;;21.10;27.40;;;;;;5149134;27;20365;-57
2022/03/29 02:04:08;;;;;;;;;;;21.10;27.50;;;;;;5144193;27;20430;-58
2022/03/29 02:06:34;;;;;;;;;;;21.20;27.30;;;;;;5143826;27;19923;-59
2022/03/29 02:09:00;;;;;;;;;;;21.10;27.50;;;;;;5149400;27;19942;-58
2022/03/29 02:11:26;;;;;;;;;;;21.00;27.60;;;;;;5144065;27;19927;-56
2022/03/29 02:13:53;;;;;;;;;;;21.10;27.60;;;;;;5146347;27;19931;-53
2022/03/29 02:16:18;;;;;;;;;;;21.00;27.80;;;;;;5145429;27;20966;-55
2022/03/29 02:18:44;;;;;;;;;;;21.20;27.50;;;;;;5140063;27;19923;-52
2022/03/29 02:21:13;;;;;;;;;;;20.90;27.70;;;;;;5149067;27;20207;-57
2022/03/29 02:23:39;;;;;;;;;;;21.20;27.40;;;;;;5125049;27;20006;-55
2022/03/29 02:26:04;;;;;;;;;;;21.00;27.70;;;;;;5143732;27;20305;-57
2022/03/29 02:28:30;;;;;;;;;;;21.10;27.50;;;;;;5149243;27;19976;-54
2022/03/29 02:30:56;;;;;;;;;;;20.90;27.70;;;;;;5143528;27;19930;-60
2022/03/29 02:33:22;;;;;;;;;;;21.20;27.40;;;;;;5143097;27;19972;-56
2022/03/29 02:35:47;;;;;;;;;;;20.90;27.60;;;;;;5145041;27;20130;-58
2022/03/29 02:38:14;;;;;;;;;;;21.20;27.30;;;;;;5142064;27;19927;-58
2022/03/29 02:40:39;;;;;;;;;;;20.90;27.50;;;;;;5148719;27;19927;-61
2022/03/29 02:43:05;;;;;;;;;;;21.20;27.10;;;;;;5143345;27;19923;-59
2022/03/29 02:45:31;;;;;;;;;;;21.00;27.50;;;;;;5143356;27;19990;-59
2022/03/29 02:47:58;;;;;;;;;;;21.20;27.20;;;;;;5148622;27;19922;-58
2022/03/29 02:50:24;;;;;;;;;;;20.90;27.60;;;;;;5142994;27;19926;-59
2022/03/29 02:52:52;;;;;;;;;;;21.30;27.10;;;;;;5141967;27;20302;-57
2022/03/29 02:55:18;;;;;;;;;;;20.90;27.50;;;;;;5144736;27;20260;-58
2022/03/29 02:57:44;;;;;;;;;;;21.30;27.10;;;;;;5124451;27;20006;-59
2022/03/29 03:00:12;;;;;;;;;;;20.90;27.30;;;;;;5130233;27;19923;-58
2022/03/29 03:02:38;;;;;;;;;;;21.20;26.90;;;;;;5143555;27;20013;-59
2022/03/29 03:05:04;;;;;;;;;;;20.90;27.20;;;;;;5143249;27;20271;-58
2022/03/29 03:07:30;;;;;;;;;;;21.20;26.80;;;;;;5148265;27;19927;-58
2022/03/29 03:09:55;;;;;;;;;;;21.00;27.10;;;;;;5142547;27;19923;-60
2022/03/29 03:12:21;;;;;;;;;;;21.30;26.70;;;;;;5140026;27;19927;-59
2022/03/29 03:14:47;;;;;;;;;;;20.90;26.90;;;;;;5146255;27;19927;-59
2022/03/29 03:17:13;;;;;;;;;;;21.20;26.50;;;;;;5142669;27;20430;-59
2022/03/29 03:19:39;;;;;;;;;;;20.90;26.90;;;;;;5145790;27;19927;-56
2022/03/29 03:22:05;;;;;;;;;;;21.20;26.50;;;;;;5145574;27;19924;-60
2022/03/29 03:24:31;;;;;;;;;;;21.00;26.70;;;;;;5142755;27;19930;-59
2022/03/29 03:26:56;;;;;;;;;;;21.30;26.40;;;;;;5147821;27;20406;-59
2022/03/29 03:29:22;;;;;;;;;;;21.00;26.70;;;;;;5141680;27;20564;-58
2022/03/29 03:31:49;;;;;;;;;;;21.20;26.30;;;;;;5138135;27;19946;-58
2022/03/29 03:34:15;;;;;;;;;;;21.00;26.60;;;;;;5147536;27;20656;-58
2022/03/29 03:36:40;;;;;;;;;;;21.30;26.30;;;;;;5124243;27;19927;-58
2022/03/29 03:39:06;;;;;;;;;;;21.10;26.50;;;;;;5124688;27;19930;-59
2022/03/29 03:41:32;;;;;;;;;;;21.10;26.50;;;;;;5147500;27;19929;-59
2022/03/29 03:43:58;;;;;;;;;;;21.00;26.60;;;;;;5142457;27;20142;-57
2022/03/29 03:46:24;;;;;;;;;;;21.10;26.50;;;;;;5147866;27;19967;-60
2022/03/29 03:48:50;;;;;;;;;;;21.10;26.50;;;;;;5140380;27;20339;-57
2022/03/29 03:51:15;;;;;;;;;;;21.10;26.40;;;;;;5139204;27;19990;-57
2022/03/29 03:53:42;;;;;;;;;;;21.20;26.40;;;;;;5147484;27;20872;-56
2022/03/29 03:56:08;;;;;;;;;;;21.00;26.40;;;;;;5142241;27;20418;-56
2022/03/29 03:58:33;;;;;;;;;;;21.20;26.20;;;;;;5142449;27;19927;-56
2022/03/29 04:00:59;;;;;;;;;;;21.10;26.20;;;;;;5147846;27;19924;-57
2022/03/29 04:03:25;;;;;;;;;;;21.00;26.30;;;;;;5123731;27;20370;-61
2022/03/29 04:05:52;;;;;;;;;;;21.10;26.20;;;;;;5128492;27;20336;-48
2022/03/29 04:08:18;;;;;;;;;;;21.10;26.20;;;;;;5138304;27;19927;-58
2022/03/29 04:10:44;;;;;;;;;;;20.90;26.30;;;;;;5122328;27;20384;-60
2022/03/29 04:13:09;;;;;;;;;;;21.20;26.00;;;;;;5147658;27;19946;-59
2022/03/29 04:15:35;;;;;;;;;;;20.80;26.40;;;;;;5141868;27;19927;-51
2022/03/29 04:18:01;;;;;;;;;;;21.20;26.00;;;;;;5142310;27;20636;-51
2022/03/29 04:20:27;;;;;;;;;;;21.00;26.20;;;;;;5147644;27;20431;-58
2022/03/29 04:22:53;;;;;;;;;;;21.30;26.10;;;;;;5141837;27;19923;-56
2022/03/29 04:25:19;;;;;;;;;;;21.00;26.30;;;;;;5145909;27;19931;-48
2022/03/29 04:27:44;;;;;;;;;;;21.20;26.20;;;;;;5138049;27;20378;-58
2022/03/29 04:30:11;;;;;;;;;;;20.90;26.30;;;;;;5141873;27;20332;-49
2022/03/29 04:32:37;;;;;;;;;;;21.20;26.10;;;;;;5147313;27;19927;-59
2022/03/29 04:35:03;;;;;;;;;;;20.90;26.40;;;;;;5141770;27;20010;-48
2022/03/29 04:37:29;;;;;;;;;;;21.20;26.10;;;;;;5142016;27;20181;-57
2022/03/29 04:39:54;;;;;;;;;;;21.00;26.20;;;;;;5147191;27;20374;-58
2022/03/29 04:42:20;;;;;;;;;;;21.20;26.00;;;;;;5143214;27;20287;-57
2022/03/29 04:44:46;;;;;;;;;;;21.00;26.20;;;;;;5146856;27;20104;-55
2022/03/29 04:47:12;;;;;;;;;;;21.20;26.10;;;;;;5145456;27;19945;-49
2022/03/29 04:49:38;;;;;;;;;;;20.90;26.40;;;;;;5145426;27;19927;-57
2022/03/29 04:52:05;;;;;;;;;;;21.30;26.00;;;;;;5150901;27;19923;-59
2022/03/29 04:54:31;;;;;;;;;;;20.90;26.40;;;;;;5145693;27;19927;-62
2022/03/29 04:56:57;;;;;;;;;;;21.30;26.00;;;;;;5145608;27;19997;-58
2022/03/29 04:59:23;;;;;;;;;;;20.90;26.30;;;;;;5150665;27;19930;-60
2022/03/29 05:01:48;;;;;;;;;;;21.30;26.00;;;;;;5144562;27;20393;-54
2022/03/29 05:04:15;;;;;;;;;;;21.00;26.20;;;;;;5142732;27;19960;-54
2022/03/29 05:06:41;;;;;;;;;;;21.30;26.00;;;;;;5149607;27;19929;-58
2022/03/29 05:09:06;;;;;;;;;;;21.10;26.10;;;;;;5145328;27;20014;-58
2022/03/29 05:11:33;;;;;;;;;;;21.10;26.30;;;;;;5150645;27;19924;-60
2022/03/29 05:13:58;;;;;;;;;;;21.00;26.30;;;;;;5145108;27;19927;-57
2022/03/29 05:16:24;;;;;;;;;;;21.20;26.20;;;;;;5145208;27;19927;-58
2022/03/29 05:18:51;;;;;;;;;;;21.10;26.20;;;;;;5150149;27;19931;-59
2022/03/29 05:21:17;;;;;;;;;;;21.10;26.30;;;;;;5142874;27;19994;-59
2022/03/29 05:23:42;;;;;;;;;;;21.00;26.40;;;;;;5141608;27;19927;-59
2022/03/29 05:26:08;;;;;;;;;;;21.10;26.50;;;;;;5150397;27;19923;-61
2022/03/29 05:28:34;;;;;;;;;;;21.10;26.60;;;;;;5145169;27;19923;-58
2022/03/29 05:31:00;;;;;;;;;;;21.10;26.60;;;;;;5150209;27;19930;-59
2022/03/29 05:33:27;;;;;;;;;;;21.10;26.60;;;;;;5144588;27;19931;-58
2022/03/29 05:35:53;;;;;;;;;;;21.10;26.70;;;;;;5144744;27;19927;-57
2022/03/29 05:38:18;;;;;;;;;;;21.00;26.80;;;;;;5149650;27;20331;-56
2022/03/29 05:40:44;;;;;;;;;;;21.10;26.80;;;;;;5140993;27;19930;-58
2022/03/29 05:43:13;;;;;;;;;;;21.10;26.90;;;;;;5143161;27;20318;-60
2022/03/29 05:45:40;;;;;;;;;;;21.10;26.90;;;;;;5149931;27;19933;-59
2022/03/29 05:50:52;;;;;;;;;;;21.10;26.90;;;;;;5144316;27;20014;-53
2022/03/29 05:53:18;;;;;;;;;;;21.20;26.90;;;;;;5149178;27;20335;-58
2022/03/29 05:55:45;;;;;;;;;;;21.00;27.00;;;;;;5143655;27;19923;-57
2022/03/29 05:58:11;;;;;;;;;;;21.20;26.90;;;;;;5147849;27;20010;-51
2022/03/29 06:00:38;;;;;;;;;;;20.90;27.30;;;;;;5140923;27;19923;-55
2022/03/29 06:03:03;;;;;;;;;;;21.10;27.10;;;;;;5144479;27;19948;-53
2022/03/29 06:05:29;;;;;;;;;;;21.00;27.20;;;;;;5149559;27;20358;-57
2022/03/29 06:07:55;;;;;;;;;;;21.20;27.00;;;;;;5125796;27;19923;-59
2022/03/29 06:10:21;;;;;;;;;;;20.90;27.20;;;;;;5125988;27;20147;-57
2022/03/29 06:12:47;;;;;;;;;;;21.20;26.90;;;;;;5149495;27;20414;-58
2022/03/29 06:15:13;;;;;;;;;;;20.90;27.20;;;;;;5143770;27;20025;-58
2022/03/29 06:17:39;;;;;;;;;;;21.30;26.80;;;;;;5145385;27;19927;-58
2022/03/29 06:20:06;;;;;;;;;;;20.90;27.40;;;;;;5143585;27;20388;-59
2022/03/29 06:22:35;;;;;;;;;;;21.30;27.00;;;;;;5143937;27;20346;-59
2022/03/29 06:25:01;;;;;;;;;;;20.90;27.40;;;;;;5149264;27;19970;-60
2022/03/29 06:27:27;;;;;;;;;;;21.20;27.00;;;;;;5143725;27;19923;-58
2022/03/29 06:29:56;;;;;;;;;;;21.00;27.20;;;;;;5143741;27;19988;-58
2022/03/29 06:32:22;;;;;;;;;;;21.10;27.00;;;;;;5149080;27;19927;-60
2022/03/29 06:34:48;;;;;;;;;;;21.10;27.10;;;;;;5142407;27;19922;-58
2022/03/29 06:37:14;;;;;;;;;;;21.00;27.10;;;;;;5139734;27;20428;-51
2022/03/29 06:39:39;;;;;;;;;;;21.20;27.00;;;;;;5148927;27;19933;-55
2022/03/29 06:42:05;;;;;;;;;;;20.90;27.10;;;;;;5143506;27;19935;-57
2022/03/29 06:44:33;;;;;;;;;;;21.20;26.90;;;;;;5148826;27;19923;-58
2022/03/29 06:47:02;;;;;;;;;;;21.00;27.20;;;;;;5143255;27;20398;-59
2022/03/29 06:49:28;;;;;;;;;;;21.30;26.80;;;;;;5143161;27;19927;-59
2022/03/29 06:51:54;;;;;;;;;;;20.90;27.30;;;;;;5148525;27;20351;-60
2022/03/29 06:54:20;;;;;;;;;;;21.20;27.00;;;;;;5140204;27;19927;-58
2022/03/29 06:56:46;;;;;;;;;;;20.90;27.30;;;;;;5140921;27;20060;-59
2022/03/29 06:59:12;;;;;;;;;;;21.20;27.00;;;;;;5148598;27;19934;-58
2022/03/29 07:01:38;;;;;;;;;;;20.90;27.30;;;;;;5142919;27;19923;-58
2022/03/29 07:04:04;;;;;;;;;;;21.30;27.10;;;;;;5148407;27;19931;-56
2022/03/29 07:06:32;;;;;;;;;;;21.00;27.50;;;;;;5143099;27;19923;-60
2022/03/29 07:11:43;;;;;;;;;;;20.90;27.40;;;;;;5147118;27;19923;-59
2022/03/29 07:14:09;;;;;;;;;;;21.30;26.90;;;;;;5138913;27;19923;-58
2022/03/29 07:16:34;;;;;;;;;;;20.90;27.30;;;;;;5142516;27;19946;-58
2022/03/29 07:19:00;;;;;;;;;;;21.20;26.90;;;;;;5148304;27;19927;-59
2022/03/29 07:21:26;;;;;;;;;;;20.90;27.30;;;;;;5142680;27;20420;-61
2022/03/29 07:23:52;;;;;;;;;;;21.30;26.90;;;;;;5124136;27;20622;-60
2022/03/29 07:26:18;;;;;;;;;;;21.00;27.40;;;;;;5148211;27;19923;-61
2022/03/29 07:28:45;;;;;;;;;;;21.30;27.10;;;;;;5142608;27;20378;-59
2022/03/29 07:31:11;;;;;;;;;;;21.00;27.40;;;;;;5144859;27;19931;-58
2022/03/29 07:33:37;;;;;;;;;;;21.20;27.00;;;;;;5140426;27;20368;-58
2022/03/29 07:36:03;;;;;;;;;;;21.10;27.30;;;;;;5142357;27;20354;-59
2022/03/29 07:38:29;;;;;;;;;;;21.10;27.40;;;;;;5148184;27;19991;-56
2022/03/29 07:40:55;;;;;;;;;;;21.10;27.50;;;;;;5142438;27;19930;-59
2022/03/29 07:43:22;;;;;;;;;;;21.00;27.40;;;;;;5142503;27;20244;-58
2022/03/29 07:45:47;;;;;;;;;;;21.20;27.30;;;;;;5147462;27;19975;-59
2022/03/29 07:48:13;;;;;;;;;;;21.10;27.30;;;;;;5122992;27;20344;-51
2022/03/29 07:50:39;;;;;;;;;;;21.20;27.30;;;;;;5140407;27;19923;-57
2022/03/29 07:53:05;;;;;;;;;;;21.20;27.30;;;;;;5145298;27;19976;-57
2022/03/29 07:55:31;;;;;;;;;;;21.00;27.70;;;;;;5142175;27;19929;-60
2022/03/29 07:57:57;;;;;;;;;;;21.20;27.40;;;;;;5147816;27;19923;-58
2022/03/29 08:00:32;;;;;;;;;;;21.10;27.60;;;;;;5123803;27;19927;-60
2022/03/29 08:02:58;;;;;;;;;;;21.10;27.70;;;;;;5142351;27;19923;-59
2022/03/29 08:05:24;;;;;;;;;;;21.10;27.70;;;;;;5147232;27;21595;-59
2022/03/29 08:07:50;;;;;;;;;;;21.20;27.50;;;;;;5140076;27;20309;-57
2022/03/29 08:10:17;;;;;;;;;;;21.20;27.70;;;;;;5138860;27;19923;-56
2022/03/29 08:12:42;;;;;;;;;;;21.30;27.40;;;;;;5147466;27;19962;-59
2022/03/29 08:15:10;;;;;;;;;;;21.00;27.60;;;;;;5142318;27;19923;-61
2022/03/29 08:17:36;;;;;;;;;;;21.20;27.30;;;;;;5149465;27;19927;-49
2022/03/29 08:20:04;;;;;;;;;;;21.00;27.60;;;;;;5127531;27;20026;-59
2022/03/29 08:22:30;;;;;;;;;;;21.20;27.30;;;;;;5145819;27;19923;-49
2022/03/29 08:24:56;;;;;;;;;;;21.00;27.80;;;;;;5132467;27;19957;-58
2022/03/29 08:27:21;;;;;;;;;;;21.30;27.40;;;;;;5142404;27;19923;-54
2022/03/29 08:29:47;;;;;;;;;;;21.10;27.60;;;;;;5144723;27;19923;-58
2022/03/29 08:32:13;;;;;;;;;;;21.20;27.40;;;;;;5151409;27;19927;-58
2022/03/29 08:34:39;;;;;;;;;;;21.20;27.50;;;;;;5145691;27;19936;-51
2022/03/29 08:37:05;;;;;;;;;;;21.10;27.70;;;;;;5148647;27;19934;-57
2022/03/29 08:39:31;;;;;;;;;;;21.30;27.40;;;;;;5148887;27;20397;-59
2022/03/29 08:42:07;;;;;;;;;;;21.00;27.80;;;;;;5145767;27;19971;-58
2022/03/29 08:44:33;;;;;;;;;;;21.10;27.70;;;;;;5149483;27;19950;-57
2022/03/29 08:47:00;;;;;;;;;;;21.10;27.70;;;;;;5141974;27;20038;-51
2022/03/29 08:49:26;;;;;;;;;;;21.20;27.70;;;;;;5145506;27;19927;-58
2022/03/29 08:51:51;;;;;;;;;;;21.20;27.80;;;;;;5151108;27;19934;-52
2022/03/29 08:54:19;;;;;;;;;;;20.90;28.10;;;;;;5145500;27;19944;-58
2022/03/29 08:56:45;;;;;;;;;;;21.30;27.70;;;;;;5145577;27;19968;-58
2022/03/29 08:59:11;;;;;;;;;;;21.10;27.90;;;;;;5150727;27;20881;-50
2022/03/29 09:01:37;;;;;;;;;;;21.00;28.20;;;;;;5144886;27;19927;-58
2022/03/29 09:04:06;;;;;;;;;;;21.30;27.80;;;;;;5147427;27;20241;-58
2022/03/29 09:06:32;;;;;;;;;;;21.10;28.00;;;;;;5145072;27;19926;-54
2022/03/29 09:08:58;;;;;;;;;;;21.10;28.00;;;;;;5145072;27;19977;-59
2022/03/29 09:11:24;;;;;;;;;;;21.30;27.80;;;;;;5150863;27;20005;-58
2022/03/29 09:14:02;;;;;;;;;;;21.20;28.10;;;;;;5145303;27;19927;-59
2022/03/29 09:16:33;;;;;;;;;;;21.10;28.00;;;;;;5145094;27;20014;-56
2022/03/29 09:18:59;;;;;;;;;;;21.20;27.90;;;;;;5150178;27;19923;-59
2022/03/29 09:21:25;;;;;;;;;;;21.10;27.90;;;;;;5143337;27;19980;-55
2022/03/29 09:24:05;;;;;;;;;;;21.00;28.00;;;;;;5141051;27;20157;-57
2022/03/29 09:26:30;;;;;;;;;;;21.10;27.80;;;;;;5150329;27;19927;-60
2022/03/29 09:28:56;;;;;;;;;;;21.30;27.60;;;;;;5143673;27;19996;-59
2022/03/29 09:31:22;;;;;;;;;;;21.10;27.80;;;;;;5145188;27;19923;-53
2022/03/29 09:33:48;;;;;;;;;;;21.10;27.80;;;;;;5149897;27;19931;-59
2022/03/29 09:36:18;;;;;;;;;;;21.30;27.60;;;;;;5144669;27;19937;-58
2022/03/29 09:38:45;;;;;;;;;;;21.20;27.60;;;;;;5131252;27;20306;-58
2022/03/29 09:41:26;;;;;;;;;;;21.10;27.60;;;;;;5141239;27;20397;-58
2022/03/29 09:43:58;;;;;;;;;;;21.30;27.50;;;;;;5143385;27;19934;-59
2022/03/29 09:46:24;;;;;;;;;;;21.30;27.50;;;;;;5150140;27;19927;-60
2022/03/29 09:48:50;;;;;;;;;;;21.20;27.40;;;;;;5144448;27;20298;-58
2022/03/29 09:51:17;;;;;;;;;;;21.20;27.40;;;;;;5144337;27;19927;-58
2022/03/29 09:53:45;;;;;;;;;;;21.30;27.40;;;;;;5149892;27;20289;-60
2022/03/29 09:56:12;;;;;;;;;;;21.30;27.40;;;;;;5144216;27;19923;-61
2022/03/29 09:58:38;;;;;;;;;;;21.20;27.30;;;;;;5142691;27;19939;-60
2022/03/29 10:01:04;;;;;;;;;;;21.30;27.20;;;;;;5145886;27;19929;-57
2022/03/29 10:03:31;;;;;;;;;;;21.30;27.10;;;;;;5125527;27;20359;-57
2022/03/29 10:06:01;;;;;;;;;;;21.30;27.00;;;;;;5149288;27;19961;-58
2022/03/29 10:11:12;;;;;;;;;;;21.20;27.00;;;;;;5128410;27;19934;-60
2022/03/29 10:13:38;;;;;;;;;;;21.30;26.80;;;;;;5149037;27;19923;-58
2022/03/29 10:16:04;;;;;;;;;;;21.30;26.90;;;;;;5143136;27;19924;-57
2022/03/29 10:18:30;;;;;;;;;;;21.30;26.90;;;;;;5121573;27;19930;-58
2022/03/29 10:20:56;;;;;;;;;;;21.40;26.80;;;;;;5148048;27;19923;-59
2022/03/29 10:23:24;;;;;;;;;;;21.30;26.80;;;;;;5125451;27;19931;-58
2022/03/29 10:25:51;;;;;;;;;;;21.40;26.70;;;;;;5125073;27;19935;-59
2022/03/29 10:28:16;;;;;;;;;;;21.40;26.80;;;;;;5130864;27;20013;-56
2022/03/29 10:30:42;;;;;;;;;;;21.40;27.10;;;;;;5143447;27;19992;-56
2022/03/29 10:33:22;;;;;;;;;;;21.40;27.20;;;;;;5147839;27;19931;-57
2022/03/29 10:36:00;;;;;;;;;;;21.50;27.10;;;;;;5146964;27;19927;-62
2022/03/29 10:38:47;;;;;;;;;;;21.60;26.90;;;;;;5140275;27;19971;-56
2022/03/29 10:41:28;;;;;;;;;;;21.60;26.90;;;;;;5141134;27;20398;-58
2022/03/29 10:44:14;;;;;;;;;;;21.60;26.90;;;;;;5148814;27;19923;-58
2022/03/29 10:46:41;;;;;;;;;;;21.60;27.00;;;;;;5143233;27;19931;-59
2022/03/29 10:49:22;;;;;;;;;;;21.70;26.90;;;;;;5143341;27;19927;-58
2022/03/29 10:51:48;;;;;;;;;;;21.80;26.70;;;;;;5148451;27;19942;-59
2022/03/29 10:54:27;;;;;;;;;;;21.80;26.90;;;;;;5141043;27;19929;-59
2022/03/29 10:57:00;;;;;;;;;;;21.80;26.90;;;;;;5140376;27;19923;-57
2022/03/29 10:59:26;;;;;;;;;;;21.80;26.80;;;;;;5148523;27;19930;-59
2022/03/29 11:02:09;;;;;;;;;;;21.80;26.80;;;;;;5142969;27;19927;-59
2022/03/29 11:04:34;;;;;;;;;;;21.80;26.80;;;;;;5142842;27;20139;-59
2022/03/29 11:07:06;;;;;;;;;;;21.80;26.80;;;;;;5148214;27;20030;-59
2022/03/29 11:09:33;;;;;;;;;;;21.80;26.70;;;;;;5142773;27;20374;-59
2022/03/29 11:11:59;;;;;;;;;;;21.80;26.70;;;;;;5142970;27;20616;-58
2022/03/29 11:14:28;;;;;;;;;;;21.80;26.90;;;;;;5143490;27;19978;-58
2022/03/29 11:16:54;;;;;;;;;;;21.80;27.00;;;;;;5142433;27;19934;-56
2022/03/29 11:19:38;;;;;;;;;;;21.80;27.00;;;;;;5148482;27;20437;-57
2022/03/29 11:22:23;;;;;;;;;;;21.80;27.00;;;;;;5145485;27;19924;-58
2022/03/29 11:24:49;;;;;;;;;;;21.80;27.00;;;;;;5142541;27;19929;-61
2022/03/29 11:27:22;;;;;;;;;;;21.80;26.90;;;;;;5147923;27;19930;-59
2022/03/29 11:29:48;;;;;;;;;;;21.80;26.90;;;;;;5126016;27;19930;-59
2022/03/29 11:32:14;;;;;;;;;;;22.00;26.90;;;;;;5139034;27;19931;-59
2022/03/29 11:34:40;;;;;;;;;;;21.90;26.90;;;;;;5146335;27;19927;-58
2022/03/29 11:37:06;;;;;;;;;;;22.00;26.80;;;;;;5142645;27;20400;-61
2022/03/29 11:39:32;;;;;;;;;;;21.90;26.70;;;;;;5123963;27;19927;-61
2022/03/29 11:41:58;;;;;;;;;;;21.90;26.70;;;;;;5148159;27;19946;-59
2022/03/29 11:44:25;;;;;;;;;;;22.00;26.70;;;;;;5122401;27;19938;-57
2022/03/29 11:46:55;;;;;;;;;;;22.00;26.80;;;;;;5142303;27;19923;-58
2022/03/29 11:49:22;;;;;;;;;;;22.00;26.80;;;;;;5144177;27;19933;-56
2022/03/29 11:52:01;;;;;;;;;;;22.00;26.90;;;;;;5137728;27;19998;-57
2022/03/29 11:54:26;;;;;;;;;;;22.10;26.90;;;;;;5146236;27;20279;-56
2022/03/29 11:56:52;;;;;;;;;;;22.10;26.90;;;;;;5144128;27;19968;-61
2022/03/29 11:59:18;;;;;;;;;;;22.10;26.90;;;;;;5123255;27;19927;-58
2022/03/29 12:01:44;;;;;;;;;;;22.10;26.70;;;;;;5148017;27;20290;-59
2022/03/29 12:04:10;;;;;;;;;;;22.10;26.50;;;;;;5142325;27;19927;-60
2022/03/29 12:06:47;;;;;;;;;;;22.10;26.40;;;;;;5141799;27;20006;-59
2022/03/29 12:09:16;;;;;;;;;;;22.10;26.50;;;;;;5143791;27;20382;-58
2022/03/29 12:11:45;;;;;;;;;;;22.20;26.50;;;;;;5140712;27;20004;-58
2022/03/29 12:14:11;;;;;;;;;;;22.20;26.40;;;;;;5142056;27;20434;-61
2022/03/29 12:16:37;;;;;;;;;;;22.20;26.40;;;;;;5147713;27;19927;-57
2022/03/29 12:19:11;;;;;;;;;;;22.20;26.20;;;;;;5142235;27;20070;-59
2022/03/29 12:21:36;;;;;;;;;;;22.30;26.10;;;;;;5144174;27;19934;-58
2022/03/29 12:24:06;;;;;;;;;;;22.20;26.10;;;;;;5145234;27;19923;-58
2022/03/29 12:26:32;;;;;;;;;;;22.20;26.10;;;;;;5121585;27;19927;-58
2022/03/29 12:28:58;;;;;;;;;;;22.30;26.00;;;;;;5125373;27;19923;-61
2022/03/29 12:31:27;;;;;;;;;;;22.30;26.00;;;;;;5123410;27;19927;-60
2022/03/29 12:33:53;;;;;;;;;;;22.20;26.10;;;;;;5123995;27;19930;-58
2022/03/29 12:36:19;;;;;;;;;;;22.30;26.00;;;;;;5147325;27;20094;-58
2022/03/29 12:38:49;;;;;;;;;;;22.20;26.00;;;;;;5141914;27;19973;-58
2022/03/29 12:41:16;;;;;;;;;;;22.30;26.00;;;;;;5141999;27;20110;-58
2022/03/29 12:43:51;;;;;;;;;;;22.20;26.10;;;;;;5128234;27;19975;-58
2022/03/29 12:46:16;;;;;;;;;;;22.30;25.90;;;;;;5137864;27;19923;-59
2022/03/29 12:48:48;;;;;;;;;;;22.30;26.00;;;;;;5124384;27;19931;-59
2022/03/29 12:51:14;;;;;;;;;;;22.30;26.00;;;;;;5129669;27;19923;-54
2022/03/29 12:53:40;;;;;;;;;;;22.30;26.00;;;;;;5141735;27;19971;-60
2022/03/29 12:56:10;;;;;;;;;;;22.30;26.00;;;;;;5147455;27;20376;-59
2022/03/29 12:58:36;;;;;;;;;;;22.30;26.00;;;;;;5141380;27;20021;-57
2022/03/29 13:01:02;;;;;;;;;;;22.30;25.90;;;;;;5141608;27;20022;-59
2022/03/29 13:03:32;;;;;;;;;;;22.40;25.80;;;;;;5146855;27;19934;-59
2022/03/29 13:06:04;;;;;;;;;;;22.40;25.70;;;;;;5123353;27;19923;-59
2022/03/29 13:08:31;;;;;;;;;;;22.40;25.70;;;;;;5143499;27;19975;-59
2022/03/29 13:10:56;;;;;;;;;;;22.40;25.90;;;;;;5150625;27;19975;-61
2022/03/29 13:13:25;;;;;;;;;;;22.40;25.80;;;;;;5145214;27;19970;-55
2022/03/29 13:15:54;;;;;;;;;;;22.30;25.90;;;;;;5145913;27;20278;-56
2022/03/29 13:18:33;;;;;;;;;;;22.50;25.80;;;;;;5150273;27;19949;-59
2022/03/29 13:21:06;;;;;;;;;;;21.50;27.00;;;;;;5144221;27;19929;-59
2022/03/29 13:23:33;;;;;;;;;;;20.90;28.00;;;;;;5143453;27;20221;-57
2022/03/29 13:25:59;;;;;;;;;;;21.40;27.20;;;;;;5147876;27;19923;-59
2022/03/29 13:28:25;;;;;;;;;;;21.50;27.10;;;;;;5144823;27;20005;-59
2022/03/29 13:30:51;;;;;;;;;;;21.50;27.00;;;;;;5150134;27;19926;-59
2022/03/29 13:33:17;;;;;;;;;;;21.50;26.90;;;;;;5144898;27;20362;-57
2022/03/29 13:35:46;;;;;;;;;;;21.60;26.80;;;;;;5144627;27;19927;-58
2022/03/29 13:38:11;;;;;;;;;;;21.70;26.70;;;;;;5150096;27;19931;-59
2022/03/29 13:40:37;;;;;;;;;;;21.70;26.70;;;;;;5142407;27;20293;-59
2022/03/29 13:43:03;;;;;;;;;;;21.70;26.60;;;;;;5141347;27;20385;-56
2022/03/29 13:45:29;;;;;;;;;;;21.60;26.80;;;;;;5149782;27;20377;-58
2022/03/29 13:47:56;;;;;;;;;;;21.60;26.80;;;;;;5144591;27;19923;-59
2022/03/29 13:50:22;;;;;;;;;;;21.60;27.00;;;;;;5149935;27;19923;-58
2022/03/29 13:52:49;;;;;;;;;;;21.50;27.20;;;;;;5144496;27;20297;-59
2022/03/29 13:55:14;;;;;;;;;;;21.60;27.10;;;;;;5144301;27;20293;-58
2022/03/29 13:57:40;;;;;;;;;;;21.50;27.20;;;;;;5149218;27;19927;-58
2022/03/29 14:00:08;;;;;;;;;;;21.60;27.10;;;;;;5140625;27;20050;-59
2022/03/29 14:02:34;;;;;;;;;;;21.70;27.00;;;;;;5142885;27;20257;-59
2022/03/29 14:05:00;;;;;;;;;;;21.70;27.00;;;;;;5149762;27;20009;-59
2022/03/29 14:07:26;;;;;;;;;;;21.70;27.00;;;;;;5144120;27;19923;-59
2022/03/29 14:09:52;;;;;;;;;;;21.60;27.10;;;;;;5149521;27;19929;-54
2022/03/29 14:12:18;;;;;;;;;;;21.50;27.10;;;;;;5144523;27;19923;-57
2022/03/29 14:14:43;;;;;;;;;;;21.50;27.30;;;;;;5143237;27;19934;-56
2022/03/29 14:17:10;;;;;;;;;;;21.50;27.40;;;;;;5147717;27;19923;-56
2022/03/29 14:19:36;;;;;;;;;;;21.60;27.20;;;;;;5140039;27;19927;-57
2022/03/29 14:22:02;;;;;;;;;;;21.70;27.20;;;;;;5143440;27;20601;-59